sensor_id;sensor_type;location;lat;lon;timestamp;temperature;humidity
9373;DHT22;10838;52.350;9.790;2022-08-21T00:01:28;17.80;92.70
9373;DHT22;10838;52.350;9.790;2022-08-21T00:03:55;17.80;92.70
9373;DHT22;10838;52.350;9.790;2022-08-21T00:06:22;17.80;92.70
9373;DHT22;10838;52.350;9.790;2022-08-21T00:08:50;17.70;92.80
9373;DHT22;10838;52.350;9.790;2022-08-21T00:11:17;17.70;92.80
9373;DHT22;10838;52.350;9.790;2022-08-21T00:13:44;17.70;92.80
9373;DHT22;10838;52.350;9.790;2022-08-21T00:16:10;17.60;92.80
9373;DHT22;10838;52.350;9.790;2022-08-21T00:18:39;17.50;92.80
9373;DHT22;10838;52.350;9.790;2022-08-21T00:21:06;17.50;92.80
9373;DHT22;10838;52.350;9.790;2022-08-21T00:23:33;17.50;92.90
9373;DHT22;10838;52.350;9.790;2022-08-21T00:26:00;17.50;92.90
9373;DHT22;10838;52.350;9.790;2022-08-21T00:28:27;17.40;92.90
9373;DHT22;10838;52.350;9.790;2022-08-21T00:30:53;17.40;92.90
9373;DHT22;10838;52.350;9.790;2022-08-21T00:33:21;17.40;92.90
9373;DHT22;10838;52.350;9.790;2022-08-21T00:35:49;17.30;92.90
9373;DHT22;10838;52.350;9.790;2022-08-21T00:38:16;17.30;92.90
9373;DHT22;10838;52.350;9.790;2022-08-21T00:40:46;17.30;93.00
9373;DHT22;10838;52.350;9.790;2022-08-21T00:43:19;17.20;92.90
9373;DHT22;10838;52.350;9.790;2022-08-21T00:45:46;17.20;93.00
9373;DHT22;10838;52.350;9.790;2022-08-21T00:48:13;17.10;93.00
9373;DHT22;10838;52.350;9.790;2022-08-21T00:50:43;17.10;93.00
9373;DHT22;10838;52.350;9.790;2022-08-21T00:53:12;17.10;93.00
9373;DHT22;10838;52.350;9.790;2022-08-21T00:55:40;17.10;93.00
9373;DHT22;10838;52.350;9.790;2022-08-21T00:58:09;17.10;93.00
9373;DHT22;10838;52.350;9.790;2022-08-21T01:00:39;17.00;93.00
9373;DHT22;10838;52.350;9.790;2022-08-21T01:03:10;17.00;93.00
9373;DHT22;10838;52.350;9.790;2022-08-21T01:05:37;16.90;93.00
9373;DHT22;10838;52.350;9.790;2022-08-21T01:08:06;16.90;93.00
9373;DHT22;10838;52.350;9.790;2022-08-21T01:10:35;16.80;93.00
9373;DHT22;10838;52.350;9.790;2022-08-21T01:13:03;16.80;93.00
9373;DHT22;10838;52.350;9.790;2022-08-21T01:15:34;16.80;93.00
9373;DHT22;10838;52.350;9.790;2022-08-21T01:18:02;16.70;93.00
9373;DHT22;10838;52.350;9.790;2022-08-21T01:20:29;16.60;93.00
9373;DHT22;10838;52.350;9.790;2022-08-21T01:22:57;16.60;93.10
9373;DHT22;10838;52.350;9.790;2022-08-21T01:25:24;16.60;93.10
9373;DHT22;10838;52.350;9.790;2022-08-21T01:27:50;16.60;93.10
9373;DHT22;10838;52.350;9.790;2022-08-21T01:30:21;16.60;93.10
9373;DHT22;10838;52.350;9.790;2022-08-21T01:32:48;16.50;93.10
9373;DHT22;10838;52.350;9.790;2022-08-21T01:35:17;16.50;93.10
9373;DHT22;10838;52.350;9.790;2022-08-21T01:37:45;16.50;93.10
9373;DHT22;10838;52.350;9.790;2022-08-21T01:40:15;16.50;93.10
9373;DHT22;10838;52.350;9.790;2022-08-21T01:42:44;16.40;93.10
9373;DHT22;10838;52.350;9.790;2022-08-21T01:45:12;16.40;93.10
9373;DHT22;10838;52.350;9.790;2022-08-21T01:47:39;16.40;93.10
9373;DHT22;10838;52.350;9.790;2022-08-21T01:50:10;16.30;93.10
9373;DHT22;10838;52.350;9.790;2022-08-21T01:52:38;16.30;93.10
9373;DHT22;10838;52.350;9.790;2022-08-21T01:55:07;16.20;93.10
9373;DHT22;10838;52.350;9.790;2022-08-21T01:57:35;16.20;93.20
9373;DHT22;10838;52.350;9.790;2022-08-21T02:00:04;16.20;93.20
9373;DHT22;10838;52.350;9.790;2022-08-21T02:02:31;16.20;93.20
9373;DHT22;10838;52.350;9.790;2022-08-21T02:04:58;16.20;93.20
9373;DHT22;10838;52.350;9.790;2022-08-21T02:07:24;16.20;93.20
9373;DHT22;10838;52.350;9.790;2022-08-21T02:09:51;16.10;93.20
9373;DHT22;10838;52.350;9.790;2022-08-21T02:12:17;16.10;93.20
9373;DHT22;10838;52.350;9.790;2022-08-21T02:14:45;16.00;93.20
9373;DHT22;10838;52.350;9.790;2022-08-21T02:17:12;16.00;93.20
9373;DHT22;10838;52.350;9.790;2022-08-21T02:19:39;16.00;93.20
9373;DHT22;10838;52.350;9.790;2022-08-21T02:22:05;16.00;93.20
9373;DHT22;10838;52.350;9.790;2022-08-21T02:24:32;15.90;93.20
9373;DHT22;10838;52.350;9.790;2022-08-21T02:26:59;15.90;93.30
9373;DHT22;10838;52.350;9.790;2022-08-21T02:29:26;15.90;93.30
9373;DHT22;10838;52.350;9.790;2022-08-21T02:31:54;15.80;93.30
9373;DHT22;10838;52.350;9.790;2022-08-21T02:34:20;15.80;93.30
9373;DHT22;10838;52.350;9.790;2022-08-21T02:36:48;15.80;93.30
9373;DHT22;10838;52.350;9.790;2022-08-21T02:39:14;15.80;93.30
9373;DHT22;10838;52.350;9.790;2022-08-21T02:41:41;15.80;93.30
9373;DHT22;10838;52.350;9.790;2022-08-21T02:44:08;15.70;93.30
9373;DHT22;10838;52.350;9.790;2022-08-21T02:46:35;15.70;93.30
9373;DHT22;10838;52.350;9.790;2022-08-21T02:49:03;15.70;93.30
9373;DHT22;10838;52.350;9.790;2022-08-21T02:51:29;15.70;93.30
9373;DHT22;10838;52.350;9.790;2022-08-21T02:53:56;15.60;93.30
9373;DHT22;10838;52.350;9.790;2022-08-21T02:56:23;15.60;93.30
9373;DHT22;10838;52.350;9.790;2022-08-21T02:58:51;15.60;93.30
9373;DHT22;10838;52.350;9.790;2022-08-21T03:01:18;15.50;93.30
9373;DHT22;10838;52.350;9.790;2022-08-21T03:03:46;15.50;93.30
9373;DHT22;10838;52.350;9.790;2022-08-21T03:06:17;15.50;93.30
9373;DHT22;10838;52.350;9.790;2022-08-21T03:08:44;15.40;93.30
9373;DHT22;10838;52.350;9.790;2022-08-21T03:11:12;15.40;93.30
9373;DHT22;10838;52.350;9.790;2022-08-21T03:13:39;15.40;93.30
9373;DHT22;10838;52.350;9.790;2022-08-21T03:16:07;15.30;93.30
9373;DHT22;10838;52.350;9.790;2022-08-21T03:18:34;15.30;93.30
9373;DHT22;10838;52.350;9.790;2022-08-21T03:21:01;15.30;93.30
9373;DHT22;10838;52.350;9.790;2022-08-21T03:23:29;15.30;93.30
9373;DHT22;10838;52.350;9.790;2022-08-21T03:25:56;15.30;93.30
9373;DHT22;10838;52.350;9.790;2022-08-21T03:28:23;15.30;93.30
9373;DHT22;10838;52.350;9.790;2022-08-21T03:30:51;15.20;93.30
9373;DHT22;10838;52.350;9.790;2022-08-21T03:33:18;15.20;93.30
9373;DHT22;10838;52.350;9.790;2022-08-21T03:35:47;15.20;93.30
9373;DHT22;10838;52.350;9.790;2022-08-21T03:38:15;15.10;93.40
9373;DHT22;10838;52.350;9.790;2022-08-21T03:40:43;15.10;93.40
9373;DHT22;10838;52.350;9.790;2022-08-21T03:43:10;15.00;93.40
9373;DHT22;10838;52.350;9.790;2022-08-21T03:45:37;15.00;93.40
9373;DHT22;10838;52.350;9.790;2022-08-21T03:48:06;15.00;93.40
9373;DHT22;10838;52.350;9.790;2022-08-21T03:50:35;15.00;93.40
9373;DHT22;10838;52.350;9.790;2022-08-21T03:53:02;15.00;93.40
9373;DHT22;10838;52.350;9.790;2022-08-21T03:55:29;14.90;93.50
9373;DHT22;10838;52.350;9.790;2022-08-21T03:57:57;14.90;93.50
9373;DHT22;10838;52.350;9.790;2022-08-21T04:00:24;14.90;93.50
9373;DHT22;10838;52.350;9.790;2022-08-21T04:02:51;14.90;93.50
9373;DHT22;10838;52.350;9.790;2022-08-21T04:05:19;15.00;93.60
9373;DHT22;10838;52.350;9.790;2022-08-21T04:07:53;15.00;93.60
9373;DHT22;10838;52.350;9.790;2022-08-21T04:10:19;15.00;93.60
9373;DHT22;10838;52.350;9.790;2022-08-21T04:12:46;15.00;93.70
9373;DHT22;10838;52.350;9.790;2022-08-21T04:15:14;15.00;93.70
9373;DHT22;10838;52.350;9.790;2022-08-21T04:17:40;15.00;93.80
9373;DHT22;10838;52.350;9.790;2022-08-21T04:20:08;15.00;93.80
9373;DHT22;10838;52.350;9.790;2022-08-21T04:22:35;15.00;93.90
9373;DHT22;10838;52.350;9.790;2022-08-21T04:25:01;15.10;94.00
9373;DHT22;10838;52.350;9.790;2022-08-21T04:27:28;15.10;94.00
9373;DHT22;10838;52.350;9.790;2022-08-21T04:29:55;15.20;94.10
9373;DHT22;10838;52.350;9.790;2022-08-21T04:32:23;15.20;94.10
9373;DHT22;10838;52.350;9.790;2022-08-21T04:34:50;15.20;94.20
9373;DHT22;10838;52.350;9.790;2022-08-21T04:37:17;15.20;94.20
9373;DHT22;10838;52.350;9.790;2022-08-21T04:39:44;15.30;94.30
9373;DHT22;10838;52.350;9.790;2022-08-21T04:42:11;15.30;94.30
9373;DHT22;10838;52.350;9.790;2022-08-21T04:44:37;15.40;94.30
9373;DHT22;10838;52.350;9.790;2022-08-21T04:47:04;15.40;94.40
9373;DHT22;10838;52.350;9.790;2022-08-21T04:49:32;15.40;94.40
9373;DHT22;10838;52.350;9.790;2022-08-21T04:52:00;15.40;94.50
9373;DHT22;10838;52.350;9.790;2022-08-21T04:54:27;15.40;94.50
9373;DHT22;10838;52.350;9.790;2022-08-21T04:56:56;15.50;94.50
9373;DHT22;10838;52.350;9.790;2022-08-21T04:59:29;15.50;94.60
9373;DHT22;10838;52.350;9.790;2022-08-21T05:01:57;15.60;94.70
9373;DHT22;10838;52.350;9.790;2022-08-21T05:04:26;15.60;94.80
9373;DHT22;10838;52.350;9.790;2022-08-21T05:07:02;15.60;94.80
9373;DHT22;10838;52.350;9.790;2022-08-21T05:09:31;15.70;94.80
9373;DHT22;10838;52.350;9.790;2022-08-21T05:11:58;15.70;94.80
9373;DHT22;10838;52.350;9.790;2022-08-21T05:14:26;15.80;94.90
9373;DHT22;10838;52.350;9.790;2022-08-21T05:16:53;15.80;95.00
9373;DHT22;10838;52.350;9.790;2022-08-21T05:19:19;15.80;95.00
9373;DHT22;10838;52.350;9.790;2022-08-21T05:21:46;15.80;95.10
9373;DHT22;10838;52.350;9.790;2022-08-21T05:24:15;15.90;95.10
9373;DHT22;10838;52.350;9.790;2022-08-21T05:26:43;16.00;95.20
9373;DHT22;10838;52.350;9.790;2022-08-21T05:29:10;16.00;95.20
9373;DHT22;10838;52.350;9.790;2022-08-21T05:31:37;16.00;95.20
9373;DHT22;10838;52.350;9.790;2022-08-21T05:34:04;16.10;95.30
9373;DHT22;10838;52.350;9.790;2022-08-21T05:36:30;16.10;95.30
9373;DHT22;10838;52.350;9.790;2022-08-21T05:38:57;16.20;95.30
9373;DHT22;10838;52.350;9.790;2022-08-21T05:41:25;16.20;95.30
9373;DHT22;10838;52.350;9.790;2022-08-21T05:43:52;16.20;95.30
9373;DHT22;10838;52.350;9.790;2022-08-21T05:46:18;16.20;95.30
9373;DHT22;10838;52.350;9.790;2022-08-21T05:48:45;16.30;95.30
9373;DHT22;10838;52.350;9.790;2022-08-21T05:51:13;16.30;95.30
9373;DHT22;10838;52.350;9.790;2022-08-21T05:53:42;16.40;95.30
9373;DHT22;10838;52.350;9.790;2022-08-21T05:56:09;16.40;95.30
9373;DHT22;10838;52.350;9.790;2022-08-21T05:58:37;16.40;95.30
9373;DHT22;10838;52.350;9.790;2022-08-21T06:01:05;16.50;95.30
9373;DHT22;10838;52.350;9.790;2022-08-21T06:03:34;16.50;95.30
9373;DHT22;10838;52.350;9.790;2022-08-21T06:06:01;16.60;95.30
9373;DHT22;10838;52.350;9.790;2022-08-21T06:08:28;16.60;95.30
9373;DHT22;10838;52.350;9.790;2022-08-21T06:10:57;16.70;95.30
9373;DHT22;10838;52.350;9.790;2022-08-21T06:13:24;16.70;95.30
9373;DHT22;10838;52.350;9.790;2022-08-21T06:16:01;16.80;95.40
9373;DHT22;10838;52.350;9.790;2022-08-21T06:18:28;16.80;95.40
9373;DHT22;10838;52.350;9.790;2022-08-21T06:20:55;16.90;95.40
9373;DHT22;10838;52.350;9.790;2022-08-21T06:23:21;16.90;95.40
9373;DHT22;10838;52.350;9.790;2022-08-21T06:25:48;16.90;95.30
9373;DHT22;10838;52.350;9.790;2022-08-21T06:28:14;17.00;95.30
9373;DHT22;10838;52.350;9.790;2022-08-21T06:30:41;17.10;95.40
9373;DHT22;10838;52.350;9.790;2022-08-21T06:33:09;17.10;95.30
9373;DHT22;10838;52.350;9.790;2022-08-21T06:35:35;17.10;95.30
9373;DHT22;10838;52.350;9.790;2022-08-21T06:38:02;17.20;95.30
9373;DHT22;10838;52.350;9.790;2022-08-21T06:40:30;17.20;95.20
9373;DHT22;10838;52.350;9.790;2022-08-21T06:42:58;17.30;95.30
9373;DHT22;10838;52.350;9.790;2022-08-21T06:45:25;17.40;95.30
9373;DHT22;10838;52.350;9.790;2022-08-21T06:47:52;17.50;95.20
9373;DHT22;10838;52.350;9.790;2022-08-21T06:50:19;17.60;95.20
9373;DHT22;10838;52.350;9.790;2022-08-21T06:52:46;17.70;95.20
9373;DHT22;10838;52.350;9.790;2022-08-21T06:55:13;17.80;95.20
9373;DHT22;10838;52.350;9.790;2022-08-21T06:57:39;17.80;95.10
9373;DHT22;10838;52.350;9.790;2022-08-21T07:00:07;18.00;95.10
9373;DHT22;10838;52.350;9.790;2022-08-21T07:02:35;18.10;95.10
9373;DHT22;10838;52.350;9.790;2022-08-21T07:05:02;18.20;95.10
9373;DHT22;10838;52.350;9.790;2022-08-21T07:07:30;18.40;95.00
9373;DHT22;10838;52.350;9.790;2022-08-21T07:09:56;18.60;95.00
9373;DHT22;10838;52.350;9.790;2022-08-21T07:12:23;18.90;94.90
9373;DHT22;10838;52.350;9.790;2022-08-21T07:14:51;19.20;94.90
9373;DHT22;10838;52.350;9.790;2022-08-21T07:17:17;19.50;94.80
9373;DHT22;10838;52.350;9.790;2022-08-21T07:19:44;19.70;94.70
9373;DHT22;10838;52.350;9.790;2022-08-21T07:22:18;20.00;94.60
9373;DHT22;10838;52.350;9.790;2022-08-21T07:24:47;20.30;94.50
9373;DHT22;10838;52.350;9.790;2022-08-21T07:27:13;20.60;94.50
9373;DHT22;10838;52.350;9.790;2022-08-21T07:29:40;20.90;94.30
9373;DHT22;10838;52.350;9.790;2022-08-21T07:32:06;21.10;94.20
9373;DHT22;10838;52.350;9.790;2022-08-21T07:34:33;21.50;94.10
9373;DHT22;10838;52.350;9.790;2022-08-21T07:37:00;21.60;93.90
9373;DHT22;10838;52.350;9.790;2022-08-21T07:39:26;21.90;93.80
9373;DHT22;10838;52.350;9.790;2022-08-21T07:41:54;22.10;93.70
9373;DHT22;10838;52.350;9.790;2022-08-21T07:44:21;22.30;93.50
9373;DHT22;10838;52.350;9.790;2022-08-21T07:46:47;22.50;93.40
9373;DHT22;10838;52.350;9.790;2022-08-21T07:49:14;22.70;93.30
9373;DHT22;10838;52.350;9.790;2022-08-21T07:51:41;23.00;93.30
9373;DHT22;10838;52.350;9.790;2022-08-21T07:54:07;23.20;93.00
9373;DHT22;10838;52.350;9.790;2022-08-21T07:56:34;23.30;92.80
9373;DHT22;10838;52.350;9.790;2022-08-21T07:59:02;23.50;92.70
9373;DHT22;10838;52.350;9.790;2022-08-21T08:01:29;23.60;92.60
9373;DHT22;10838;52.350;9.790;2022-08-21T08:03:56;23.80;92.40
9373;DHT22;10838;52.350;9.790;2022-08-21T08:06:23;24.00;92.20
9373;DHT22;10838;52.350;9.790;2022-08-21T08:08:51;24.10;92.00
9373;DHT22;10838;52.350;9.790;2022-08-21T08:11:18;24.20;91.90
9373;DHT22;10838;52.350;9.790;2022-08-21T08:13:48;24.40;91.90
9373;DHT22;10838;52.350;9.790;2022-08-21T08:16:16;24.60;91.70
9373;DHT22;10838;52.350;9.790;2022-08-21T08:18:44;24.70;91.60
9373;DHT22;10838;52.350;9.790;2022-08-21T08:21:11;24.80;91.50
9373;DHT22;10838;52.350;9.790;2022-08-21T08:23:38;24.90;91.50
9373;DHT22;10838;52.350;9.790;2022-08-21T08:26:04;25.10;91.40
9373;DHT22;10838;52.350;9.790;2022-08-21T08:28:32;25.20;91.30
9373;DHT22;10838;52.350;9.790;2022-08-21T08:31:00;25.40;91.10
9373;DHT22;10838;52.350;9.790;2022-08-21T08:33:29;25.50;91.10
9373;DHT22;10838;52.350;9.790;2022-08-21T08:35:56;25.60;90.90
9373;DHT22;10838;52.350;9.790;2022-08-21T08:38:24;25.70;90.80
9373;DHT22;10838;52.350;9.790;2022-08-21T08:40:55;25.90;90.70
9373;DHT22;10838;52.350;9.790;2022-08-21T08:43:25;26.00;90.70
9373;DHT22;10838;52.350;9.790;2022-08-21T08:45:54;26.10;90.60
9373;DHT22;10838;52.350;9.790;2022-08-21T08:48:40;26.30;90.50
9373;DHT22;10838;52.350;9.790;2022-08-21T08:51:15;26.40;90.30
9373;DHT22;10838;52.350;9.790;2022-08-21T08:53:49;26.60;90.30
9373;DHT22;10838;52.350;9.790;2022-08-21T08:56:21;26.70;90.20
9373;DHT22;10838;52.350;9.790;2022-08-21T08:58:50;26.70;90.10
9373;DHT22;10838;52.350;9.790;2022-08-21T09:01:19;26.80;90.10
9373;DHT22;10838;52.350;9.790;2022-08-21T09:03:49;26.90;90.10
9373;DHT22;10838;52.350;9.790;2022-08-21T09:09:15;27.10;89.80
9373;DHT22;10838;52.350;9.790;2022-08-21T09:11:51;27.10;89.60
9373;DHT22;10838;52.350;9.790;2022-08-21T09:14:26;27.20;89.50
9373;DHT22;10838;52.350;9.790;2022-08-21T09:17:00;27.30;89.50
9373;DHT22;10838;52.350;9.790;2022-08-21T09:19:43;27.30;89.30
9373;DHT22;10838;52.350;9.790;2022-08-21T09:22:22;27.40;89.20
9373;DHT22;10838;52.350;9.790;2022-08-21T09:24:54;27.40;89.10
9373;DHT22;10838;52.350;9.790;2022-08-21T09:27:23;27.40;89.30
9373;DHT22;10838;52.350;9.790;2022-08-21T09:29:54;27.50;89.30
9373;DHT22;10838;52.350;9.790;2022-08-21T09:32:24;27.60;89.30
9373;DHT22;10838;52.350;9.790;2022-08-21T09:34:58;27.70;88.80
9373;DHT22;10838;52.350;9.790;2022-08-21T09:37:27;27.70;88.90
9373;DHT22;10838;52.350;9.790;2022-08-21T09:39:56;27.80;88.90
9373;DHT22;10838;52.350;9.790;2022-08-21T09:42:26;27.80;88.90
9373;DHT22;10838;52.350;9.790;2022-08-21T09:45:08;27.80;88.60
9373;DHT22;10838;52.350;9.790;2022-08-21T09:47:35;27.80;88.50
9373;DHT22;10838;52.350;9.790;2022-08-21T09:50:13;27.70;88.70
9373;DHT22;10838;52.350;9.790;2022-08-21T09:52:45;27.70;88.60
9373;DHT22;10838;52.350;9.790;2022-08-21T09:55:19;27.70;88.50
9373;DHT22;10838;52.350;9.790;2022-08-21T09:58:04;27.60;88.50
9373;DHT22;10838;52.350;9.790;2022-08-21T10:00:33;27.50;88.60
9373;DHT22;10838;52.350;9.790;2022-08-21T10:03:12;27.50;88.50
9373;DHT22;10838;52.350;9.790;2022-08-21T10:05:49;27.50;88.40
9373;DHT22;10838;52.350;9.790;2022-08-21T10:08:18;27.50;88.00
9373;DHT22;10838;52.350;9.790;2022-08-21T10:10:44;27.40;88.00
9373;DHT22;10838;52.350;9.790;2022-08-21T10:13:13;27.40;88.20
9373;DHT22;10838;52.350;9.790;2022-08-21T10:15:50;27.40;88.20
9373;DHT22;10838;52.350;9.790;2022-08-21T10:18:24;27.40;88.30
9373;DHT22;10838;52.350;9.790;2022-08-21T10:20:59;27.40;88.30
9373;DHT22;10838;52.350;9.790;2022-08-21T10:23:43;27.40;88.20
9373;DHT22;10838;52.350;9.790;2022-08-21T10:26:24;27.40;87.80
9373;DHT22;10838;52.350;9.790;2022-08-21T10:29:01;27.40;87.70
9373;DHT22;10838;52.350;9.790;2022-08-21T10:31:35;27.30;87.60
9373;DHT22;10838;52.350;9.790;2022-08-21T10:34:13;27.30;87.60
9373;DHT22;10838;52.350;9.790;2022-08-21T10:36:58;27.30;87.60
9373;DHT22;10838;52.350;9.790;2022-08-21T10:39:32;27.30;87.90
9373;DHT22;10838;52.350;9.790;2022-08-21T10:42:20;27.30;87.90
9373;DHT22;10838;52.350;9.790;2022-08-21T10:45:02;27.40;87.80
9373;DHT22;10838;52.350;9.790;2022-08-21T10:47:35;27.40;87.70
9373;DHT22;10838;52.350;9.790;2022-08-21T10:50:10;27.50;87.70
9373;DHT22;10838;52.350;9.790;2022-08-21T10:52:54;27.60;87.40
9373;DHT22;10838;52.350;9.790;2022-08-21T10:55:25;27.60;87.30
9373;DHT22;10838;52.350;9.790;2022-08-21T10:57:57;27.70;87.30
9373;DHT22;10838;52.350;9.790;2022-08-21T11:00:29;27.70;87.20
9373;DHT22;10838;52.350;9.790;2022-08-21T11:03:03;27.70;87.10
9373;DHT22;10838;52.350;9.790;2022-08-21T11:05:33;27.70;87.00
9373;DHT22;10838;52.350;9.790;2022-08-21T11:08:08;27.70;86.80
9373;DHT22;10838;52.350;9.790;2022-08-21T11:10:40;27.70;86.70
9373;DHT22;10838;52.350;9.790;2022-08-21T11:13:12;27.70;86.80
9373;DHT22;10838;52.350;9.790;2022-08-21T11:15:43;27.60;86.60
9373;DHT22;10838;52.350;9.790;2022-08-21T11:18:21;27.60;86.70
9373;DHT22;10838;52.350;9.790;2022-08-21T11:20:59;27.60;86.60
9373;DHT22;10838;52.350;9.790;2022-08-21T11:23:36;27.60;86.60
9373;DHT22;10838;52.350;9.790;2022-08-21T11:26:09;27.60;86.40
9373;DHT22;10838;52.350;9.790;2022-08-21T11:28:43;27.60;86.50
9373;DHT22;10838;52.350;9.790;2022-08-21T11:31:29;27.60;86.60
9373;DHT22;10838;52.350;9.790;2022-08-21T11:34:08;27.50;86.60
9373;DHT22;10838;52.350;9.790;2022-08-21T11:36:40;27.50;86.50
9373;DHT22;10838;52.350;9.790;2022-08-21T11:39:20;27.50;86.50
9373;DHT22;10838;52.350;9.790;2022-08-21T11:41:54;27.50;86.40
9373;DHT22;10838;52.350;9.790;2022-08-21T11:44:33;27.50;86.50
9373;DHT22;10838;52.350;9.790;2022-08-21T11:47:08;27.50;86.50
9373;DHT22;10838;52.350;9.790;2022-08-21T11:49:46;27.60;86.70
9373;DHT22;10838;52.350;9.790;2022-08-21T11:52:20;27.70;86.60
9373;DHT22;10838;52.350;9.790;2022-08-21T11:54:53;27.70;86.40
9373;DHT22;10838;52.350;9.790;2022-08-21T11:57:24;27.80;86.30
9373;DHT22;10838;52.350;9.790;2022-08-21T11:59:56;27.80;86.10
9373;DHT22;10838;52.350;9.790;2022-08-21T12:02:28;27.80;85.60
9373;DHT22;10838;52.350;9.790;2022-08-21T12:04:59;27.70;85.70
9373;DHT22;10838;52.350;9.790;2022-08-21T12:07:34;27.70;85.90
9373;DHT22;10838;52.350;9.790;2022-08-21T12:10:07;27.70;86.10
9373;DHT22;10838;52.350;9.790;2022-08-21T12:12:35;27.70;86.00
9373;DHT22;10838;52.350;9.790;2022-08-21T12:15:16;27.80;85.90
9373;DHT22;10838;52.350;9.790;2022-08-21T12:17:53;27.80;85.60
9373;DHT22;10838;52.350;9.790;2022-08-21T12:20:32;27.80;85.70
9373;DHT22;10838;52.350;9.790;2022-08-21T12:23:06;27.80;85.90
9373;DHT22;10838;52.350;9.790;2022-08-21T12:25:44;27.80;85.80
9373;DHT22;10838;52.350;9.790;2022-08-21T12:28:15;27.90;85.70
9373;DHT22;10838;52.350;9.790;2022-08-21T12:30:44;27.90;85.50
9373;DHT22;10838;52.350;9.790;2022-08-21T12:33:22;28.00;85.40
9373;DHT22;10838;52.350;9.790;2022-08-21T12:35:51;28.00;85.40
9373;DHT22;10838;52.350;9.790;2022-08-21T12:38:21;28.00;85.40
9373;DHT22;10838;52.350;9.790;2022-08-21T12:40:53;28.00;85.30
9373;DHT22;10838;52.350;9.790;2022-08-21T12:43:27;28.00;85.30
9373;DHT22;10838;52.350;9.790;2022-08-21T12:45:55;28.00;85.50
9373;DHT22;10838;52.350;9.790;2022-08-21T12:48:26;28.10;85.40
9373;DHT22;10838;52.350;9.790;2022-08-21T12:50:56;28.00;85.50
9373;DHT22;10838;52.350;9.790;2022-08-21T12:53:27;28.00;85.50
9373;DHT22;10838;52.350;9.790;2022-08-21T12:55:57;28.00;85.50
9373;DHT22;10838;52.350;9.790;2022-08-21T12:58:27;28.00;85.70
9373;DHT22;10838;52.350;9.790;2022-08-21T13:00:57;28.10;85.50
9373;DHT22;10838;52.350;9.790;2022-08-21T13:03:26;28.00;85.60
9373;DHT22;10838;52.350;9.790;2022-08-21T13:05:52;28.00;85.60
9373;DHT22;10838;52.350;9.790;2022-08-21T13:08:21;28.00;85.60
9373;DHT22;10838;52.350;9.790;2022-08-21T13:10:58;28.10;85.60
9373;DHT22;10838;52.350;9.790;2022-08-21T13:13:27;28.10;85.30
9373;DHT22;10838;52.350;9.790;2022-08-21T13:15:58;28.10;85.40
9373;DHT22;10838;52.350;9.790;2022-08-21T13:18:29;28.10;85.40
9373;DHT22;10838;52.350;9.790;2022-08-21T13:21:05;28.10;85.20
9373;DHT22;10838;52.350;9.790;2022-08-21T13:23:32;28.10;85.10
9373;DHT22;10838;52.350;9.790;2022-08-21T13:26:00;28.10;85.10
9373;DHT22;10838;52.350;9.790;2022-08-21T13:28:33;28.10;85.10
9373;DHT22;10838;52.350;9.790;2022-08-21T13:31:06;28.00;85.10
9373;DHT22;10838;52.350;9.790;2022-08-21T13:33:37;28.00;85.20
9373;DHT22;10838;52.350;9.790;2022-08-21T13:36:09;28.00;85.20
9373;DHT22;10838;52.350;9.790;2022-08-21T13:38:36;28.00;85.20
9373;DHT22;10838;52.350;9.790;2022-08-21T13:41:12;27.90;85.20
9373;DHT22;10838;52.350;9.790;2022-08-21T13:43:45;28.00;85.20
9373;DHT22;10838;52.350;9.790;2022-08-21T13:46:13;28.00;85.20
9373;DHT22;10838;52.350;9.790;2022-08-21T13:48:41;28.00;85.20
9373;DHT22;10838;52.350;9.790;2022-08-21T13:51:09;28.00;85.10
9373;DHT22;10838;52.350;9.790;2022-08-21T13:53:46;28.00;85.00
9373;DHT22;10838;52.350;9.790;2022-08-21T13:56:24;28.00;84.90
9373;DHT22;10838;52.350;9.790;2022-08-21T13:58:52;27.90;84.80
9373;DHT22;10838;52.350;9.790;2022-08-21T14:01:21;27.90;84.90
9373;DHT22;10838;52.350;9.790;2022-08-21T14:03:50;27.90;85.10
9373;DHT22;10838;52.350;9.790;2022-08-21T14:06:21;27.90;85.20
9373;DHT22;10838;52.350;9.790;2022-08-21T14:08:51;27.90;85.20
9373;DHT22;10838;52.350;9.790;2022-08-21T14:11:19;27.90;85.30
9373;DHT22;10838;52.350;9.790;2022-08-21T14:13:50;27.90;85.60
9373;DHT22;10838;52.350;9.790;2022-08-21T14:16:19;27.90;85.40
9373;DHT22;10838;52.350;9.790;2022-08-21T14:18:50;27.90;85.30
9373;DHT22;10838;52.350;9.790;2022-08-21T14:21:28;27.90;85.30
9373;DHT22;10838;52.350;9.790;2022-08-21T14:24:07;27.90;85.20
9373;DHT22;10838;52.350;9.790;2022-08-21T14:26:37;27.80;85.00
9373;DHT22;10838;52.350;9.790;2022-08-21T14:29:13;27.80;84.90
9373;DHT22;10838;52.350;9.790;2022-08-21T14:31:40;27.80;85.10
9373;DHT22;10838;52.350;9.790;2022-08-21T14:34:08;27.80;85.10
9373;DHT22;10838;52.350;9.790;2022-08-21T14:36:36;27.80;84.90
9373;DHT22;10838;52.350;9.790;2022-08-21T14:39:03;27.80;84.80
9373;DHT22;10838;52.350;9.790;2022-08-21T14:41:30;27.80;84.80
9373;DHT22;10838;52.350;9.790;2022-08-21T14:43:56;27.80;84.60
9373;DHT22;10838;52.350;9.790;2022-08-21T14:46:27;27.80;84.70
9373;DHT22;10838;52.350;9.790;2022-08-21T14:48:55;27.80;84.70
9373;DHT22;10838;52.350;9.790;2022-08-21T14:51:22;27.80;84.80
9373;DHT22;10838;52.350;9.790;2022-08-21T14:53:48;27.90;85.00
9373;DHT22;10838;52.350;9.790;2022-08-21T14:56:15;27.90;84.90
9373;DHT22;10838;52.350;9.790;2022-08-21T14:58:43;27.90;84.70
9373;DHT22;10838;52.350;9.790;2022-08-21T15:01:13;27.90;84.70
9373;DHT22;10838;52.350;9.790;2022-08-21T15:03:42;27.90;84.60
9373;DHT22;10838;52.350;9.790;2022-08-21T15:06:09;27.90;84.50
9373;DHT22;10838;52.350;9.790;2022-08-21T15:08:36;27.80;84.50
9373;DHT22;10838;52.350;9.790;2022-08-21T15:11:04;27.80;84.60
9373;DHT22;10838;52.350;9.790;2022-08-21T15:13:31;27.80;84.60
9373;DHT22;10838;52.350;9.790;2022-08-21T15:15:58;27.80;84.70
9373;DHT22;10838;52.350;9.790;2022-08-21T15:18:27;27.80;84.60
9373;DHT22;10838;52.350;9.790;2022-08-21T15:20:55;27.80;84.50
9373;DHT22;10838;52.350;9.790;2022-08-21T15:23:22;27.70;84.40
9373;DHT22;10838;52.350;9.790;2022-08-21T15:25:50;27.70;84.50
9373;DHT22;10838;52.350;9.790;2022-08-21T15:28:17;27.70;84.70
9373;DHT22;10838;52.350;9.790;2022-08-21T15:30:44;27.60;84.80
9373;DHT22;10838;52.350;9.790;2022-08-21T15:33:11;27.60;84.90
9373;DHT22;10838;52.350;9.790;2022-08-21T15:35:38;27.60;84.80
9373;DHT22;10838;52.350;9.790;2022-08-21T15:38:06;27.50;84.70
9373;DHT22;10838;52.350;9.790;2022-08-21T15:40:34;27.50;84.70
9373;DHT22;10838;52.350;9.790;2022-08-21T15:43:03;27.60;84.90
9373;DHT22;10838;52.350;9.790;2022-08-21T15:45:31;27.60;84.80
9373;DHT22;10838;52.350;9.790;2022-08-21T15:47:58;27.60;84.80
9373;DHT22;10838;52.350;9.790;2022-08-21T15:50:26;27.60;84.90
9373;DHT22;10838;52.350;9.790;2022-08-21T15:52:54;27.60;84.80
9373;DHT22;10838;52.350;9.790;2022-08-21T15:55:22;27.60;84.80
9373;DHT22;10838;52.350;9.790;2022-08-21T15:57:51;27.60;84.70
9373;DHT22;10838;52.350;9.790;2022-08-21T16:00:20;27.70;84.70
9373;DHT22;10838;52.350;9.790;2022-08-21T16:02:51;27.70;84.70